»·PEaware :: ASA124 KSEA-KPHX

ASA124 :: KSEA-KPHX

FLIGHT INFORMATION

Flight Status: Arrived
Operator:
Alaska Airlines
More flights by this operator :: More flights under this callsign
Pilot: Steve F. (26981)
Aircraft: BOEING 737-800
(B738)
More flights by this aircraft type
Origin: KSEA Seattle-Tacoma Intl
United States
Destination: KPHX Phoenix Sky Harbor Intl
United States
More flights between these airports :: More routes between these airports
Route: SUMMA2 SUMMA LTJ IMB Q35 CORKR TENTS BRUSR1
File this flight plan on PilotEdge
Remarks:
Altitude:
(Current/Filed)
33,000ft
Speed:
(Current/Filed)
430kts
Departed: 18-Jan-21 05:06 PM
Arrived: 18-Jan-21 07:18 PM
Distance/Time
Traveled:
961nm/2:12
Distance/Time
To Go:
Arrived

Flight Plot

Page will automatically refresh every two minutes.

Flight plan parsing failed; only flown route is shown


Map Options




Map Legend


Flown Route
Filed Route
Departure Airport
Arrival Airport
Navaid (VOR, NDB)
Fix

Horizontal Profiles

Position Reports

Time Latitude Longitude Heading Altitude Ground
Speed
18-Jan-21 16:47 47.446653 -122.299914 139 440ft 0kts
18-Jan-21 16:48 47.446653 -122.299914 139 441ft 0kts
18-Jan-21 16:49 47.446653 -122.299914 139 441ft 0kts
18-Jan-21 16:50 47.446653 -122.299914 139 441ft 0kts
18-Jan-21 16:51 47.446653 -122.299914 139 441ft 0kts
18-Jan-21 16:52 47.446653 -122.299914 139 441ft 0kts
18-Jan-21 16:53 47.446653 -122.299914 139 441ft 0kts
18-Jan-21 16:54 47.446653 -122.299914 139 441ft 0kts
18-Jan-21 16:55 47.446653 -122.299914 139 441ft 0kts
18-Jan-21 16:56 47.447215 -122.300259 183 441ft 0kts
18-Jan-21 16:57 47.447214 -122.300259 183 441ft 0kts
18-Jan-21 16:58 47.447115 -122.300634 254 441ft 6kts
18-Jan-21 16:59 47.447156 -122.302707 310 441ft 6kts
18-Jan-21 17:00 47.447058 -122.306165 180 441ft 9kts
18-Jan-21 17:01 47.443170 -122.306141 179 441ft 19kts
18-Jan-21 17:02 47.436917 -122.306193 180 441ft 21kts
18-Jan-21 17:03 47.432652 -122.305579 185 441ft 16kts
18-Jan-21 17:04 47.432652 -122.307993 0 441ft 28kts
18-Jan-21 17:05 47.468102 -122.307886 0 1644ft 178kts
18-Jan-21 17:06 47.526870 -122.308777 358 3896ft 237kts
18-Jan-21 17:07 47.593425 -122.291014 49 6856ft 265kts
18-Jan-21 17:09 47.585450 -122.181618 111 9308ft 295kts
18-Jan-21 17:10 47.509874 -122.126373 167 11678ft 344kts
18-Jan-21 17:11 47.405464 -122.097612 173 13082ft 409kts
18-Jan-21 17:12 47.289036 -122.080997 175 15651ft 432kts
18-Jan-21 17:13 47.166192 -122.063967 175 18028ft 455kts
18-Jan-21 17:14 47.036667 -122.046003 175 20072ft 479kts
18-Jan-21 17:15 46.900824 -122.027107 174 21908ft 501kts
18-Jan-21 17:16 46.758653 -122.007588 173 23402ft 523kts
18-Jan-21 17:17 46.612542 -121.974789 156 24814ft 535kts
18-Jan-21 17:18 46.486948 -121.863960 136 26208ft 532kts
18-Jan-21 17:19 46.364052 -121.737508 137 27502ft 546kts
18-Jan-21 17:20 46.237730 -121.611459 138 28629ft 558kts
18-Jan-21 17:21 46.109461 -121.485153 137 30229ft 556kts
18-Jan-21 17:22 45.981543 -121.360195 137 31664ft 555kts
18-Jan-21 17:23 45.852180 -121.234368 138 32822ft 562kts
18-Jan-21 17:23 45.743982 -121.130109 138 33548ft 567kts
18-Jan-21 17:25 45.608640 -120.962268 126 33559ft 547kts
18-Jan-21 17:25 45.515703 -120.838418 126 33555ft 549kts
18-Jan-21 17:27 45.385455 -120.665680 125 33547ft 548kts
18-Jan-21 17:27 45.292203 -120.542831 125 33538ft 549kts
18-Jan-21 17:28 45.180246 -120.396345 125 33531ft 548kts
18-Jan-21 17:29 45.067755 -120.250050 125 33522ft 546kts
18-Jan-21 17:30 44.955620 -120.105035 125 33514ft 546kts
18-Jan-21 17:31 44.843427 -119.960387 124 33506ft 546kts
18-Jan-21 17:32 44.734648 -119.821289 125 33497ft 547kts
18-Jan-21 17:33 44.616465 -119.689446 138 33485ft 568kts
18-Jan-21 17:34 44.469289 -119.597132 149 33475ft 582kts
18-Jan-21 17:35 44.321031 -119.507577 147 33457ft 578kts
18-Jan-21 17:36 44.174097 -119.416884 147 33438ft 578kts
18-Jan-21 17:37 44.026403 -119.326130 147 33420ft 579kts
18-Jan-21 17:38 43.878843 -119.235933 147 33398ft 578kts
18-Jan-21 17:39 43.731994 -119.146631 147 33392ft 578kts
18-Jan-21 17:40 43.584421 -119.057208 147 33390ft 579kts
18-Jan-21 17:41 43.436485 -118.968343 147 33393ft 579kts
18-Jan-21 17:42 43.286839 -118.879060 148 33393ft 594kts
18-Jan-21 17:43 43.136769 -118.790258 148 33386ft 582kts
18-Jan-21 17:44 42.987140 -118.701666 148 33383ft 594kts
18-Jan-21 17:45 42.835929 -118.612360 147 33384ft 590kts
18-Jan-21 17:46 42.685487 -118.524251 148 33378ft 588kts
18-Jan-21 17:47 42.535127 -118.436700 147 33364ft 586kts
18-Jan-21 17:48 42.385539 -118.349890 147 33362ft 583kts
18-Jan-21 17:49 42.236104 -118.263705 147 33363ft 585kts
18-Jan-21 17:50 42.087073 -118.178151 147 33357ft 575kts
18-Jan-21 17:51 41.939912 -118.094188 147 33349ft 574kts
18-Jan-21 17:52 41.798719 -118.000662 133 33338ft 552kts
18-Jan-21 17:53 41.688591 -117.867359 121 33330ft 528kts
18-Jan-21 17:54 41.582035 -117.731230 122 33324ft 529kts
18-Jan-21 17:55 41.475009 -117.596371 123 33315ft 528kts
18-Jan-21 17:56 41.367469 -117.462431 124 33311ft 528kts
18-Jan-21 17:57 41.260407 -117.330062 125 33308ft 526kts
18-Jan-21 17:58 41.153072 -117.198077 125 33306ft 523kts
18-Jan-21 17:59 41.045715 -117.066703 126 33304ft 523kts
18-Jan-21 18:00 40.939076 -116.936820 127 33304ft 521kts
18-Jan-21 18:01 40.832165 -116.807202 128 33302ft 520kts
18-Jan-21 18:02 40.725745 -116.678765 128 33299ft 518kts
18-Jan-21 18:03 40.619426 -116.551021 129 33298ft 515kts
18-Jan-21 18:04 40.513270 -116.424059 130 33295ft 513kts
18-Jan-21 18:05 40.407889 -116.298597 131 33291ft 511kts
18-Jan-21 18:06 40.302465 -116.173630 132 33282ft 509kts
18-Jan-21 18:07 40.197304 -116.049523 132 33265ft 508kts
18-Jan-21 18:08 40.092012 -115.925796 132 33245ft 507kts
18-Jan-21 18:09 39.986934 -115.802854 133 33228ft 508kts
18-Jan-21 18:10 39.881713 -115.680268 133 33212ft 507kts
18-Jan-21 18:11 39.776415 -115.558116 133 33207ft 506kts
18-Jan-21 18:12 39.671342 -115.436742 134 33203ft 504kts
18-Jan-21 18:13 39.566536 -115.316210 135 33191ft 502kts
18-Jan-21 18:14 39.461994 -115.196457 136 33179ft 501kts
18-Jan-21 18:15 39.357822 -115.077672 136 33172ft 499kts
18-Jan-21 18:16 39.253655 -114.959316 137 33170ft 497kts
18-Jan-21 18:17 39.149508 -114.841503 138 33170ft 496kts
18-Jan-21 18:18 39.045901 -114.724769 138 33170ft 495kts
18-Jan-21 18:19 38.941961 -114.608135 139 33168ft 494kts
18-Jan-21 18:20 38.838607 -114.492626 139 33165ft 493kts
18-Jan-21 18:21 38.734878 -114.377165 140 33162ft 492kts
18-Jan-21 18:22 38.631525 -114.262604 141 33158ft 490kts
18-Jan-21 18:23 38.528557 -114.148866 141 33154ft 489kts
18-Jan-21 18:24 38.425565 -114.035562 142 33151ft 488kts
18-Jan-21 18:25 38.321804 -113.921749 143 33133ft 491kts
18-Jan-21 18:26 38.217888 -113.808382 143 33132ft 496kts
18-Jan-21 18:27 38.113432 -113.694651 143 33126ft 491kts
18-Jan-21 18:28 38.009529 -113.582182 143 33124ft 493kts
18-Jan-21 18:29 37.900745 -113.479837 157 33104ft 478kts
18-Jan-21 18:30 37.782074 -113.407490 160 33102ft 469kts
18-Jan-21 18:31 37.664257 -113.336526 161 33097ft 468kts
18-Jan-21 18:32 37.547095 -113.265616 161 33091ft 466kts
18-Jan-21 18:33 37.430486 -113.195223 162 33074ft 464kts
18-Jan-21 18:34 37.314255 -113.125358 162 33052ft 461kts
18-Jan-21 18:35 37.198491 -113.056026 162 33033ft 459kts
18-Jan-21 18:36 37.083342 -112.987311 163 33026ft 458kts
18-Jan-21 18:37 36.968596 -112.919054 163 33021ft 456kts
18-Jan-21 18:38 36.853816 -112.851019 164 33023ft 454kts
18-Jan-21 18:39 36.739868 -112.783702 164 33025ft 453kts
18-Jan-21 18:40 36.625847 -112.716547 164 33024ft 452kts
18-Jan-21 18:41 36.512404 -112.649966 165 33021ft 451kts
18-Jan-21 18:42 36.399281 -112.583778 165 33016ft 448kts
18-Jan-21 18:43 36.286255 -112.517699 165 32759ft 447kts
18-Jan-21 18:44 36.173891 -112.452444 165 31760ft 448kts
18-Jan-21 18:45 36.058415 -112.406987 188 30759ft 414kts
18-Jan-21 18:46 35.943634 -112.413086 192 29765ft 415kts
18-Jan-21 18:47 35.826763 -112.422853 192 29004ft 425kts
18-Jan-21 18:48 35.708154 -112.433247 192 28989ft 428kts
18-Jan-21 18:49 35.588564 -112.443581 192 28986ft 432kts
18-Jan-21 18:50 35.468433 -112.446540 181 28978ft 442kts
18-Jan-21 18:52 35.346239 -112.423216 179 28969ft 447kts
18-Jan-21 18:53 35.223679 -112.399243 179 28967ft 443kts
18-Jan-21 18:54 35.100256 -112.372966 178 27884ft 447kts
18-Jan-21 18:55 34.979381 -112.346823 177 26223ft 435kts
18-Jan-21 18:56 34.860805 -112.321184 176 24643ft 430kts
18-Jan-21 18:57 34.743630 -112.295382 175 23041ft 424kts
18-Jan-21 18:58 34.628798 -112.270131 175 21488ft 410kts
18-Jan-21 18:59 34.521729 -112.246699 175 20336ft 372kts
18-Jan-21 19:00 34.422585 -112.224423 173 18846ft 357kts
18-Jan-21 19:01 34.326564 -112.199209 173 17216ft 348kts
18-Jan-21 19:02 34.233067 -112.174984 172 15895ft 333kts
18-Jan-21 19:03 34.145464 -112.152360 172 14935ft 313kts
18-Jan-21 19:04 34.061369 -112.139506 187 13677ft 298kts
18-Jan-21 19:05 33.982350 -112.148619 189 12869ft 270kts
18-Jan-21 19:06 33.908127 -112.157107 190 11319ft 265kts
18-Jan-21 19:07 33.838451 -112.171752 192 10193ft 251kts
18-Jan-21 19:07 33.779719 -112.184302 190 9034ft 259kts
18-Jan-21 19:09 33.699163 -112.201313 190 7489ft 244kts
18-Jan-21 19:10 33.634279 -112.215006 189 6608ft 229kts
18-Jan-21 19:11 33.571968 -112.228232 190 5792ft 225kts
18-Jan-21 19:11 33.522112 -112.238952 190 5039ft 212kts
18-Jan-21 19:12 33.465098 -112.249837 172 4208ft 205kts
18-Jan-21 19:13 33.440367 -112.201227 91 3853ft 185kts
18-Jan-21 19:14 33.441096 -112.138317 90 2959ft 186kts
18-Jan-21 19:15 33.440918 -112.082143 90 2076ft 157kts
18-Jan-21 19:16 33.440887 -112.030194 90 1194ft 148kts
18-Jan-21 19:17 33.440084 -112.007308 183 1143ft 12kts
18-Jan-21 19:18 33.438972 -112.009049 271 1143ft 15kts
18-Jan-21 19:19 33.437345 -112.009363 90 1143ft 0kts
18-Jan-21 19:20 33.437345 -112.009360 90 1143ft 0kts
18-Jan-21 19:21 33.437345 -112.009360 90 1143ft 0kts
18-Jan-21 19:22 33.437345 -112.009360 90 1143ft 0kts

Navigation Log

Ident Type
Flight plan parsing failed, navigation log unavailable